Time;durP1;ratioP1;P1;durP2;ratioP2;P2;SDS_P1;SDS_P2;PMS_P1;PMS_P2;Temp;Humidity;BMP_temperature;BMP_pressure;BME280_temperature;BME280_humidity;BME280_pressure;Samples;Min_cycle;Max_cycle;Signal;HPM_P1;HPM_P2
2022/10/14 00:02:19;;;;;;;56.23;33.80;;;;;;;;;;5031121;28;20644;-60
2022/10/14 00:04:44;;;;;;;62.30;37.17;;;;;;;;;;5033588;28;20063;-60
2022/10/14 00:07:09;;;;;;;59.57;36.17;;;;;;;;;;5033385;28;20026;-60
2022/10/14 00:09:34;;;;;;;59.10;39.10;;;;;;;;;;5031366;28;20451;-60
2022/10/14 00:11:59;;;;;;;57.13;32.28;;;;;;;;;;5033082;28;20392;-61
2022/10/14 00:14:24;;;;;;;60.80;39.40;;;;;;;;;;5031716;28;20033;-61
2022/10/14 00:16:52;;;;;;;54.88;34.40;;;;;;;;;;5033170;28;20022;-60
2022/10/14 00:19:17;;;;;;;63.08;35.70;;;;;;;;;;5031658;28;20439;-61
2022/10/14 00:21:43;;;;;;;61.13;35.42;;;;;;;;;;5032688;28;20025;-61
2022/10/14 00:24:09;;;;;;;55.90;34.42;;;;;;;;;;5030931;28;20033;-60
2022/10/14 00:26:36;;;;;;;60.10;35.78;;;;;;;;;;5032759;28;20148;-61
2022/10/14 00:29:02;;;;;;;59.30;35.15;;;;;;;;;;5031490;28;20087;-60
2022/10/14 00:31:27;;;;;;;52.80;33.45;;;;;;;;;;5030978;28;20115;-60
2022/10/14 00:33:52;;;;;;;54.33;33.30;;;;;;;;;;5032794;28;20080;-62
2022/10/14 00:36:19;;;;;;;54.05;30.15;;;;;;;;;;5032803;28;20052;-62
2022/10/14 00:38:44;;;;;;;52.13;29.17;;;;;;;;;;5030928;28;20037;-62
2022/10/14 00:41:14;;;;;;;52.20;31.98;;;;;;;;;;5032734;28;20037;-61
2022/10/14 00:43:50;;;;;;;52.83;31.42;;;;;;;;;;5031041;28;20038;-62
2022/10/14 00:46:16;;;;;;;53.08;31.02;;;;;;;;;;5032466;28;20025;-61
2022/10/14 00:48:41;;;;;;;50.17;29.42;;;;;;;;;;5030863;28;20107;-61
2022/10/14 00:51:06;;;;;;;42.60;24.97;;;;;;;;;;5032802;28;20027;-61
2022/10/14 00:53:32;;;;;;;42.22;26.48;;;;;;;;;;5030197;28;20111;-62
2022/10/14 00:55:57;;;;;;;50.08;28.40;;;;;;;;;;5032466;28;20021;-61
2022/10/14 00:58:22;;;;;;;49.60;27.20;;;;;;;;;;5030772;28;20497;-61
2022/10/14 01:00:47;;;;;;;48.08;26.25;;;;;;;;;;5032314;28;20049;-61
2022/10/14 01:03:20;;;;;;;43.40;25.95;;;;;;;;;;5030544;28;20060;-59
2022/10/14 01:05:50;;;;;;;49.25;26.92;;;;;;;;;;5032487;28;20022;-59
2022/10/14 01:08:18;;;;;;;46.08;25.75;;;;;;;;;;5030389;28;20107;-59
2022/10/14 01:10:57;;;;;;;47.65;27.20;;;;;;;;;;5032393;28;20104;-59
2022/10/14 01:13:33;;;;;;;43.80;25.20;;;;;;;;;;5032495;28;20041;-59
2022/10/14 01:16:03;;;;;;;44.97;30.63;;;;;;;;;;5050260;28;20464;-59
2022/10/14 01:18:31;;;;;;;38.35;23.55;;;;;;;;;;5041897;28;20041;-59
2022/10/14 01:21:04;;;;;;;39.45;26.75;;;;;;;;;;5032253;28;20026;-59
2022/10/14 01:23:32;;;;;;;37.00;23.35;;;;;;;;;;5029403;28;20034;-60
2022/10/14 01:26:08;;;;;;;43.40;28.53;;;;;;;;;;5032162;28;20109;-60
2022/10/14 01:28:48;;;;;;;44.13;28.33;;;;;;;;;;5030285;28;21063;-60
2022/10/14 01:31:21;;;;;;;48.78;30.00;;;;;;;;;;5031444;28;20025;-60
2022/10/14 01:33:48;;;;;;;50.83;31.63;;;;;;;;;;5029511;28;20088;-59
2022/10/14 01:36:19;;;;;;;53.70;30.70;;;;;;;;;;5031530;28;20026;-59
2022/10/14 01:38:52;;;;;;;62.38;33.25;;;;;;;;;;5029998;28;20120;-59
2022/10/14 01:41:33;;;;;;;63.80;36.85;;;;;;;;;;5031850;28;20032;-60
2022/10/14 01:44:00;;;;;;;59.15;35.10;;;;;;;;;;5030166;28;20030;-59
2022/10/14 01:46:25;;;;;;;73.07;36.13;;;;;;;;;;5029274;28;20032;-59
2022/10/14 01:48:53;;;;;;;65.90;37.40;;;;;;;;;;5031478;28;20021;-60
2022/10/14 01:51:23;;;;;;;67.43;36.55;;;;;;;;;;5031029;28;20025;-60
2022/10/14 01:53:55;;;;;;;55.08;34.60;;;;;;;;;;5029913;28;20045;-59
2022/10/14 01:56:20;;;;;;;57.28;32.25;;;;;;;;;;5031392;28;20025;-60
2022/10/14 01:58:46;;;;;;;55.00;32.00;;;;;;;;;;5029837;28;20053;-59
2022/10/14 02:01:11;;;;;;;54.72;31.85;;;;;;;;;;5031168;28;20028;-60
2022/10/14 02:03:37;;;;;;;55.60;30.77;;;;;;;;;;5029444;28;20034;-60
2022/10/14 02:06:05;;;;;;;62.67;37.20;;;;;;;;;;5030874;28;20452;-60
2022/10/14 02:08:51;;;;;;;55.45;34.30;;;;;;;;;;5028911;28;20053;-60
2022/10/14 02:11:17;;;;;;;65.85;38.65;;;;;;;;;;5031138;28;20021;-60
2022/10/14 02:14:01;;;;;;;63.80;34.65;;;;;;;;;;5029521;28;20180;-60
2022/10/14 02:16:26;;;;;;;60.05;36.30;;;;;;;;;;5029447;28;20022;-59
2022/10/14 02:19:01;;;;;;;68.35;39.67;;;;;;;;;;5030897;28;20024;-59
2022/10/14 02:21:30;;;;;;;68.93;36.15;;;;;;;;;;5029166;28;20021;-59
2022/10/14 02:23:59;;;;;;;72.63;40.47;;;;;;;;;;5030700;28;20013;-59
2022/10/14 02:26:25;;;;;;;76.07;38.47;;;;;;;;;;5029570;28;20030;-59
2022/10/14 02:28:51;;;;;;;67.32;38.65;;;;;;;;;;5030740;28;20041;-58
2022/10/14 02:31:17;;;;;;;67.63;36.25;;;;;;;;;;5030890;28;20087;-59
2022/10/14 02:33:44;;;;;;;75.32;37.40;;;;;;;;;;5028930;28;20054;-60
2022/10/14 02:36:10;;;;;;;82.60;39.55;;;;;;;;;;5030879;28;20026;-60
2022/10/14 02:38:36;;;;;;;76.90;37.65;;;;;;;;;;5028652;28;20030;-61
2022/10/14 02:41:04;;;;;;;72.70;40.13;;;;;;;;;;5031158;28;20021;-61
2022/10/14 02:43:29;;;;;;;78.47;36.22;;;;;;;;;;5029189;28;20025;-61
2022/10/14 02:45:58;;;;;;;73.05;34.00;;;;;;;;;;5032533;28;20029;-61
2022/10/14 02:48:23;;;;;;;63.33;34.78;;;;;;;;;;5032674;28;20041;-63
2022/10/14 02:50:49;;;;;;;68.80;35.97;;;;;;;;;;5034964;28;20044;-63
2022/10/14 02:53:15;;;;;;;80.00;38.72;;;;;;;;;;5033012;28;20133;-63
2022/10/14 02:55:40;;;;;;;76.18;36.80;;;;;;;;;;5034970;28;20025;-62
2022/10/14 02:58:05;;;;;;;77.35;35.88;;;;;;;;;;5033404;28;20129;-62
2022/10/14 03:00:30;;;;;;;81.13;37.45;;;;;;;;;;5033866;28;20017;-62
2022/10/14 03:02:55;;;;;;;86.87;42.47;;;;;;;;;;5032989;28;20477;-62
2022/10/14 03:05:21;;;;;;;84.77;39.00;;;;;;;;;;5034614;28;21006;-62
2022/10/14 03:07:46;;;;;;;87.57;42.40;;;;;;;;;;5032649;28;20044;-62
2022/10/14 03:10:11;;;;;;;101.38;42.15;;;;;;;;;;5034296;28;20018;-62
2022/10/14 03:12:36;;;;;;;99.70;43.33;;;;;;;;;;5032803;28;20401;-62
2022/10/14 03:15:02;;;;;;;98.93;43.57;;;;;;;;;;5033907;28;20147;-60
2022/10/14 03:17:27;;;;;;;104.53;39.50;;;;;;;;;;5032262;28;20048;-60
2022/10/14 03:19:52;;;;;;;100.28;42.45;;;;;;;;;;5034512;28;20025;-60
2022/10/14 03:22:17;;;;;;;117.37;43.27;;;;;;;;;;5032694;28;20403;-60
2022/10/14 03:24:43;;;;;;;107.20;44.80;;;;;;;;;;5034015;28;20072;-61
2022/10/14 03:27:08;;;;;;;112.10;48.45;;;;;;;;;;5032658;28;20472;-60
2022/10/14 03:29:33;;;;;;;105.93;43.20;;;;;;;;;;5033336;28;20029;-61
2022/10/14 03:31:58;;;;;;;108.03;42.83;;;;;;;;;;5032328;28;20041;-60
2022/10/14 03:34:23;;;;;;;123.53;46.70;;;;;;;;;;5034017;28;20408;-61
2022/10/14 03:36:48;;;;;;;109.97;48.63;;;;;;;;;;5031949;28;20448;-60
2022/10/14 03:39:13;;;;;;;122.80;46.63;;;;;;;;;;5033652;28;20104;-61
2022/10/14 03:41:39;;;;;;;113.90;45.97;;;;;;;;;;5032360;28;20492;-62
2022/10/14 03:44:04;;;;;;;106.65;41.70;;;;;;;;;;5033672;28;20013;-61
2022/10/14 03:46:30;;;;;;;103.77;44.23;;;;;;;;;;5032178;28;20021;-61
2022/10/14 03:48:55;;;;;;;124.85;45.80;;;;;;;;;;5033761;28;20482;-61
2022/10/14 03:51:20;;;;;;;116.80;47.65;;;;;;;;;;5032688;28;20030;-61
2022/10/14 03:53:45;;;;;;;123.67;48.33;;;;;;;;;;5032104;28;20057;-61
2022/10/14 03:56:10;;;;;;;117.70;48.63;;;;;;;;;;5033280;28;20435;-61
2022/10/14 03:58:35;;;;;;;133.48;49.47;;;;;;;;;;5031596;28;20033;-61
2022/10/14 04:01:01;;;;;;;112.35;46.92;;;;;;;;;;5033426;28;20504;-61
2022/10/14 04:03:26;;;;;;;121.33;49.77;;;;;;;;;;5031556;28;20037;-61
2022/10/14 04:05:51;;;;;;;130.73;49.83;;;;;;;;;;5033205;28;20905;-62
2022/10/14 04:08:16;;;;;;;126.67;49.47;;;;;;;;;;5031670;28;20041;-61
2022/10/14 04:10:41;;;;;;;121.73;46.80;;;;;;;;;;5033187;28;20427;-61
2022/10/14 04:13:07;;;;;;;122.65;46.40;;;;;;;;;;5031764;28;20460;-61
2022/10/14 04:15:33;;;;;;;151.00;48.20;;;;;;;;;;5032851;28;20084;-61
2022/10/14 04:17:58;;;;;;;138.35;47.55;;;;;;;;;;5031903;28;20057;-60
2022/10/14 04:20:24;;;;;;;140.52;49.60;;;;;;;;;;5033089;28;20056;-60
2022/10/14 04:22:49;;;;;;;136.30;48.85;;;;;;;;;;5031168;28;20045;-60
2022/10/14 04:25:14;;;;;;;152.82;50.13;;;;;;;;;;5032961;28;20542;-60
2022/10/14 04:27:39;;;;;;;144.50;52.47;;;;;;;;;;5030992;28;20069;-60
2022/10/14 04:30:04;;;;;;;146.48;55.35;;;;;;;;;;5032681;28;20527;-60
2022/10/14 04:32:30;;;;;;;142.60;51.38;;;;;;;;;;5031296;28;20064;-60
2022/10/14 04:34:55;;;;;;;139.32;53.28;;;;;;;;;;5033099;28;20350;-60
2022/10/14 04:37:20;;;;;;;134.43;50.53;;;;;;;;;;5030802;28;20041;-60
2022/10/14 04:39:45;;;;;;;159.25;57.58;;;;;;;;;;5032687;28;20436;-60
2022/10/14 04:42:10;;;;;;;156.05;54.03;;;;;;;;;;5030857;28;20041;-60
2022/10/14 04:44:36;;;;;;;145.80;55.77;;;;;;;;;;5032441;28;20021;-60
2022/10/14 04:47:01;;;;;;;144.10;51.97;;;;;;;;;;5031524;28;20509;-60
2022/10/14 04:49:26;;;;;;;171.52;57.75;;;;;;;;;;5031978;28;20083;-60
2022/10/14 04:51:51;;;;;;;177.52;57.40;;;;;;;;;;5030613;28;20044;-59
2022/10/14 04:54:16;;;;;;;157.53;57.83;;;;;;;;;;5032253;28;20448;-59
2022/10/14 04:56:41;;;;;;;180.68;59.45;;;;;;;;;;5030926;28;20025;-59
2022/10/14 04:59:07;;;;;;;180.55;58.33;;;;;;;;;;5032149;28;20028;-59
2022/10/14 05:01:32;;;;;;;201.73;60.95;;;;;;;;;;5030764;28;20021;-59
2022/10/14 05:03:57;;;;;;;182.00;61.75;;;;;;;;;;5032489;28;20081;-59
2022/10/14 05:06:22;;;;;;;181.52;58.75;;;;;;;;;;5032013;28;20350;-59
2022/10/14 05:08:47;;;;;;;163.55;59.70;;;;;;;;;;5029556;28;20041;-59
2022/10/14 05:11:13;;;;;;;178.77;59.50;;;;;;;;;;5031939;28;20025;-59
2022/10/14 05:13:38;;;;;;;193.38;59.53;;;;;;;;;;5030016;28;20463;-59
2022/10/14 05:16:03;;;;;;;176.77;63.20;;;;;;;;;;5032497;28;20037;-59
2022/10/14 05:18:28;;;;;;;200.68;63.95;;;;;;;;;;5030169;28;20041;-59
2022/10/14 05:20:56;;;;;;;200.63;66.00;;;;;;;;;;5031565;28;20017;-60
2022/10/14 05:23:21;;;;;;;186.25;65.05;;;;;;;;;;5030386;28;20033;-60
2022/10/14 05:25:46;;;;;;;181.30;65.95;;;;;;;;;;5032153;28;20018;-60
2022/10/14 05:28:12;;;;;;;201.23;65.93;;;;;;;;;;5029966;28;20049;-60
2022/10/14 05:30:37;;;;;;;193.83;64.97;;;;;;;;;;5031789;28;20577;-60
2022/10/14 05:33:02;;;;;;;227.18;72.63;;;;;;;;;;5030200;28;20069;-60
2022/10/14 05:35:27;;;;;;;223.65;67.18;;;;;;;;;;5031468;28;20026;-60
2022/10/14 05:37:53;;;;;;;207.90;71.70;;;;;;;;;;5029991;28;20500;-59
2022/10/14 05:40:18;;;;;;;217.50;71.97;;;;;;;;;;5031483;28;20103;-60
2022/10/14 05:42:43;;;;;;;224.73;72.83;;;;;;;;;;5029408;28;20034;-61
2022/10/14 05:45:10;;;;;;;233.43;76.03;;;;;;;;;;5030602;28;20021;-64
2022/10/14 05:47:35;;;;;;;255.80;75.05;;;;;;;;;;5029826;28;20037;-58
2022/10/14 05:50:02;;;;;;;243.00;82.45;;;;;;;;;;5030537;28;20014;-58
2022/10/14 05:52:28;;;;;;;252.60;80.82;;;;;;;;;;5029185;28;20401;-58
2022/10/14 05:54:53;;;;;;;265.02;83.07;;;;;;;;;;5031132;28;20033;-58
2022/10/14 05:57:19;;;;;;;266.05;84.03;;;;;;;;;;5027856;28;20064;-58
2022/10/14 05:59:44;;;;;;;260.70;77.45;;;;;;;;;;5030422;28;20511;-58
2022/10/14 06:02:10;;;;;;;267.30;83.03;;;;;;;;;;5029612;28;20044;-58
2022/10/14 06:04:39;;;;;;;226.60;78.07;;;;;;;;;;5030817;28;20021;-58
2022/10/14 06:07:04;;;;;;;268.38;83.25;;;;;;;;;;5029953;28;20037;-59
2022/10/14 06:09:30;;;;;;;251.63;77.87;;;;;;;;;;5030695;28;20123;-58
2022/10/14 06:11:55;;;;;;;246.87;80.50;;;;;;;;;;5029212;28;20780;-58
2022/10/14 06:14:20;;;;;;;240.85;78.13;;;;;;;;;;5030335;28;20033;-58
2022/10/14 06:16:48;;;;;;;251.10;80.43;;;;;;;;;;5029747;28;20029;-58
2022/10/14 06:19:13;;;;;;;270.80;79.03;;;;;;;;;;5030591;28;20479;-58
2022/10/14 06:21:38;;;;;;;241.20;79.37;;;;;;;;;;5029342;28;20472;-59
2022/10/14 06:24:03;;;;;;;266.35;82.53;;;;;;;;;;5029772;28;20068;-58
2022/10/14 06:26:28;;;;;;;236.27;80.10;;;;;;;;;;5028674;28;20022;-58
2022/10/14 06:28:54;;;;;;;231.03;74.50;;;;;;;;;;5029345;28;20018;-59
2022/10/14 06:31:19;;;;;;;221.90;74.28;;;;;;;;;;5029800;28;20452;-58
2022/10/14 06:33:44;;;;;;;229.32;78.22;;;;;;;;;;5029548;28;20077;-58
2022/10/14 06:36:10;;;;;;;247.23;78.88;;;;;;;;;;5028404;28;20033;-58
2022/10/14 06:38:36;;;;;;;213.55;73.63;;;;;;;;;;5027801;28;20094;-58
2022/10/14 06:41:01;;;;;;;215.05;74.25;;;;;;;;;;5030103;28;20018;-60
2022/10/14 06:43:26;;;;;;;217.57;73.77;;;;;;;;;;5027412;28;20087;-60
2022/10/14 06:45:51;;;;;;;218.60;70.88;;;;;;;;;;5027898;28;20452;-57
2022/10/14 06:48:16;;;;;;;191.63;70.78;;;;;;;;;;5028290;28;20125;-57
2022/10/14 06:50:42;;;;;;;185.35;69.88;;;;;;;;;;5028938;28;20112;-57
2022/10/14 06:53:07;;;;;;;194.33;71.50;;;;;;;;;;5028654;28;20037;-61
2022/10/14 06:55:32;;;;;;;187.43;71.85;;;;;;;;;;5030056;28;20048;-58
2022/10/14 06:57:57;;;;;;;174.43;65.07;;;;;;;;;;5026283;28;20396;-58
2022/10/14 07:00:23;;;;;;;171.25;61.53;;;;;;;;;;5047794;28;20071;-57
2022/10/14 07:02:48;;;;;;;141.23;56.75;;;;;;;;;;5028931;28;20033;-58
2022/10/14 07:05:13;;;;;;;161.80;60.50;;;;;;;;;;5030106;28;20591;-57
2022/10/14 07:07:38;;;;;;;148.40;53.33;;;;;;;;;;5028336;28;20057;-57
2022/10/14 07:10:03;;;;;;;153.50;59.72;;;;;;;;;;5030059;28;20490;-57
2022/10/14 07:12:29;;;;;;;151.48;56.72;;;;;;;;;;5028409;28;20026;-58
2022/10/14 07:14:54;;;;;;;128.57;56.25;;;;;;;;;;5030141;28;20021;-58
2022/10/14 07:17:19;;;;;;;128.03;53.87;;;;;;;;;;5029088;28;20038;-58
2022/10/14 07:19:44;;;;;;;131.57;59.17;;;;;;;;;;5030217;28;20087;-58
2022/10/14 07:22:09;;;;;;;131.75;57.88;;;;;;;;;;5029079;28;20057;-58
2022/10/14 07:24:34;;;;;;;118.00;54.03;;;;;;;;;;5030340;28;20469;-58
2022/10/14 07:27:00;;;;;;;127.82;52.95;;;;;;;;;;5027532;28;20998;-58
2022/10/14 07:29:25;;;;;;;127.10;52.97;;;;;;;;;;5030014;28;20337;-58
2022/10/14 07:31:50;;;;;;;112.45;52.90;;;;;;;;;;5030696;28;20537;-57
2022/10/14 07:34:16;;;;;;;110.17;45.63;;;;;;;;;;5033710;28;20511;-58
2022/10/14 07:36:41;;;;;;;112.53;52.73;;;;;;;;;;5032689;28;20036;-58
2022/10/14 07:39:06;;;;;;;122.72;50.28;;;;;;;;;;5034109;28;20440;-58
2022/10/14 07:41:31;;;;;;;124.88;52.83;;;;;;;;;;5031677;28;20018;-58
2022/10/14 07:44:04;;;;;;;112.00;52.80;;;;;;;;;;5033616;28;20147;-58
2022/10/14 07:46:31;;;;;;;105.97;51.88;;;;;;;;;;5030067;28;20021;-57
2022/10/14 07:48:57;;;;;;;111.45;48.88;;;;;;;;;;5031268;28;20026;-58
2022/10/14 07:51:23;;;;;;;116.68;52.83;;;;;;;;;;5031331;28;20036;-58
2022/10/14 07:53:49;;;;;;;95.07;48.20;;;;;;;;;;5031881;28;20041;-57
2022/10/14 07:56:14;;;;;;;105.30;48.15;;;;;;;;;;5032907;28;20511;-58
2022/10/14 07:58:39;;;;;;;108.20;46.80;;;;;;;;;;5031165;28;20037;-58
2022/10/14 08:01:04;;;;;;;97.88;47.00;;;;;;;;;;5032810;28;20033;-58
2022/10/14 08:03:29;;;;;;;115.90;49.83;;;;;;;;;;5031357;28;20029;-58
2022/10/14 08:05:59;;;;;;;98.35;50.67;;;;;;;;;;5033786;28;20382;-59
2022/10/14 08:08:24;;;;;;;105.05;45.90;;;;;;;;;;5031773;28;20038;-58
2022/10/14 08:10:49;;;;;;;95.57;49.13;;;;;;;;;;5032710;28;20022;-58
2022/10/14 08:13:14;;;;;;;97.43;49.33;;;;;;;;;;5033729;28;20037;-58
2022/10/14 08:15:41;;;;;;;96.60;48.63;;;;;;;;;;5023522;28;20043;-57
2022/10/14 08:18:08;;;;;;;85.82;47.50;;;;;;;;;;5031061;28;20476;-58
2022/10/14 08:20:33;;;;;;;88.07;45.80;;;;;;;;;;5023672;28;20053;-58
2022/10/14 08:22:59;;;;;;;80.35;45.05;;;;;;;;;;5028820;28;20450;-58
2022/10/14 08:25:24;;;;;;;82.95;45.70;;;;;;;;;;5017971;28;20104;-57
2022/10/14 08:27:50;;;;;;;74.47;44.93;;;;;;;;;;5030074;28;20037;-58
2022/10/14 08:30:15;;;;;;;82.20;47.30;;;;;;;;;;5031793;28;20029;-58
2022/10/14 08:32:40;;;;;;;73.05;42.22;;;;;;;;;;5030328;28;20058;-58
2022/10/14 08:35:05;;;;;;;68.15;45.10;;;;;;;;;;5032301;28;20029;-58
2022/10/14 08:37:31;;;;;;;57.00;38.40;;;;;;;;;;5029526;28;20519;-58
2022/10/14 08:39:56;;;;;;;64.60;38.40;;;;;;;;;;5032278;28;20029;-57
2022/10/14 08:42:29;;;;;;;52.83;35.25;;;;;;;;;;5030247;28;20034;-57
2022/10/14 08:44:56;;;;;;;55.80;36.10;;;;;;;;;;5031444;28;20071;-58
2022/10/14 08:47:30;;;;;;;55.05;37.40;;;;;;;;;;5029889;28;20508;-57
2022/10/14 08:50:03;;;;;;;56.30;37.40;;;;;;;;;;5032083;28;20025;-57
2022/10/14 08:52:29;;;;;;;48.25;34.28;;;;;;;;;;5029605;28;20037;-58
2022/10/14 08:54:56;;;;;;;49.58;33.17;;;;;;;;;;5031866;28;20356;-58
2022/10/14 08:57:28;;;;;;;45.35;32.10;;;;;;;;;;5029817;28;20390;-58
2022/10/14 08:59:53;;;;;;;43.65;32.70;;;;;;;;;;5043322;28;20380;-58
2022/10/14 09:02:22;;;;;;;40.10;29.67;;;;;;;;;;5030295;28;20029;-58
2022/10/14 09:04:48;;;;;;;39.50;29.40;;;;;;;;;;5030475;28;20017;-58
2022/10/14 09:07:15;;;;;;;34.42;26.58;;;;;;;;;;5029561;28;20030;-58
2022/10/14 09:09:42;;;;;;;31.65;25.75;;;;;;;;;;5030859;28;20029;-58
2022/10/14 09:12:12;;;;;;;33.58;26.20;;;;;;;;;;5030182;28;20378;-58
2022/10/14 09:14:38;;;;;;;31.38;26.15;;;;;;;;;;5030818;28;20060;-58
2022/10/14 09:17:06;;;;;;;35.00;27.17;;;;;;;;;;5029897;28;20175;-58
2022/10/14 09:19:33;;;;;;;32.75;27.92;;;;;;;;;;5031295;28;20021;-58
2022/10/14 09:22:00;;;;;;;29.70;24.90;;;;;;;;;;5029160;28;20033;-59
2022/10/14 09:24:34;;;;;;;26.92;23.90;;;;;;;;;;5029451;28;20376;-58
2022/10/14 09:27:02;;;;;;;28.98;25.75;;;;;;;;;;5030445;28;20493;-58
2022/10/14 09:29:29;;;;;;;28.90;21.92;;;;;;;;;;5030595;28;20053;-58
2022/10/14 09:32:00;;;;;;;24.80;22.10;;;;;;;;;;5029650;28;20847;-57
2022/10/14 09:34:36;;;;;;;29.00;24.98;;;;;;;;;;5030982;28;20025;-58
2022/10/14 09:37:20;;;;;;;30.90;25.17;;;;;;;;;;5029097;28;20049;-58
2022/10/14 09:39:46;;;;;;;30.83;26.33;;;;;;;;;;5031018;28;20030;-58
2022/10/14 09:42:16;;;;;;;27.52;24.35;;;;;;;;;;5029138;28;20049;-58
2022/10/14 09:44:42;;;;;;;33.50;27.13;;;;;;;;;;5029821;28;20059;-58
2022/10/14 09:47:11;;;;;;;33.97;26.30;;;;;;;;;;5028194;28;20065;-58
2022/10/14 09:49:36;;;;;;;33.17;27.40;;;;;;;;;;5030069;28;20688;-58
2022/10/14 09:52:01;;;;;;;30.80;27.50;;;;;;;;;;5028778;28;20045;-58
2022/10/14 09:54:28;;;;;;;32.40;27.90;;;;;;;;;;5029889;28;20459;-58
2022/10/14 09:56:57;;;;;;;29.65;25.90;;;;;;;;;;5029004;28;20037;-58
2022/10/14 09:59:23;;;;;;;29.48;24.52;;;;;;;;;;5010039;28;20710;-58
2022/10/14 10:01:50;;;;;;;30.92;26.92;;;;;;;;;;5021856;28;20109;-58
2022/10/14 10:04:24;;;;;;;37.55;29.88;;;;;;;;;;5031026;28;20068;-58
2022/10/14 10:06:50;;;;;;;31.73;26.65;;;;;;;;;;5028541;28;20498;-59
2022/10/14 10:09:17;;;;;;;36.17;30.15;;;;;;;;;;5030495;28;20025;-58
2022/10/14 10:11:42;;;;;;;39.92;31.83;;;;;;;;;;5029156;28;20029;-58
2022/10/14 10:14:43;;;;;;;32.95;28.17;;;;;;;;;;5029625;28;20021;-57
2022/10/14 10:17:11;;;;;;;40.33;31.65;;;;;;;;;;5005809;28;20054;-58
2022/10/14 10:19:36;;;;;;;;;;;;;;;;;;5023416;28;20069;-58
2022/10/14 10:22:13;;;;;;;38.20;28.98;;;;;;;;;;5027634;28;19956;-58
2022/10/14 10:24:38;;;;;;;39.80;30.38;;;;;;;;;;5030342;28;20029;-58
2022/10/14 10:27:17;;;;;;;39.10;30.65;;;;;;;;;;5028224;28;20048;-58
2022/10/14 10:29:42;;;;;;;36.60;31.15;;;;;;;;;;5014775;28;20032;-58
2022/10/14 10:32:28;;;;;;;40.90;32.30;;;;;;;;;;5028078;28;20037;-57
2022/10/14 10:34:59;;;;;;;42.08;29.25;;;;;;;;;;5029014;28;20115;-57
2022/10/14 10:37:29;;;;;;;38.50;32.10;;;;;;;;;;5028089;28;20099;-58
2022/10/14 10:40:06;;;;;;;40.38;31.60;;;;;;;;;;5029807;28;20044;-58
2022/10/14 10:42:36;;;;;;;45.88;32.35;;;;;;;;;;5027338;28;20082;-58
2022/10/14 10:45:20;;;;;;;34.70;30.88;;;;;;;;;;5030548;28;20032;-58
2022/10/14 10:48:01;;;;;;;34.75;30.85;;;;;;;;;;5028170;28;20115;-58
2022/10/14 10:50:41;;;;;;;41.28;31.55;;;;;;;;;;5028378;28;20017;-58
2022/10/14 10:53:21;;;;;;;36.80;31.08;;;;;;;;;;5028171;28;20116;-58
2022/10/14 10:55:52;;;;;;;38.50;29.02;;;;;;;;;;5030636;28;20017;-58
2022/10/14 10:58:17;;;;;;;34.83;30.40;;;;;;;;;;5027604;28;20106;-58
2022/10/14 11:00:56;;;;;;;36.75;27.33;;;;;;;;;;5029776;28;20026;-58
2022/10/14 11:03:31;;;;;;;35.63;30.20;;;;;;;;;;5028450;28;20041;-58
2022/10/14 11:06:02;;;;;;;32.08;27.25;;;;;;;;;;5029408;28;20421;-58
2022/10/14 11:14:28;;;;;;;35.03;29.35;;;;;;;;;;5032645;28;20095;-58
2022/10/14 11:16:53;;;;;;;31.10;27.08;;;;;;;;;;5031844;28;20037;-58
2022/10/14 11:19:24;;;;;;;37.78;28.45;;;;;;;;;;5032983;28;20045;-58
2022/10/14 11:21:55;;;;;;;32.13;27.35;;;;;;;;;;5032297;28;20034;-58
2022/10/14 11:24:30;;;;;;;31.30;27.02;;;;;;;;;;5033234;28;20029;-58
2022/10/14 11:26:58;;;;;;;31.73;28.35;;;;;;;;;;5031572;28;20053;-57
2022/10/14 11:29:26;;;;;;;33.33;26.75;;;;;;;;;;5033212;28;20025;-58
2022/10/14 11:32:13;;;;;;;33.95;28.58;;;;;;;;;;5031740;28;20087;-57
2022/10/14 11:34:47;;;;;;;30.65;27.40;;;;;;;;;;5031734;28;20808;-58
2022/10/14 11:37:30;;;;;;;30.65;26.13;;;;;;;;;;5032281;28;20046;-58
2022/10/14 11:40:14;;;;;;;25.33;22.65;;;;;;;;;;5032747;28;20025;-57
2022/10/14 11:42:51;;;;;;;28.15;22.90;;;;;;;;;;5030716;28;20401;-58
2022/10/14 11:45:19;;;;;;;30.75;24.88;;;;;;;;;;5033021;28;20079;-58
2022/10/14 11:47:46;;;;;;;29.02;24.58;;;;;;;;;;5030845;28;20033;-57
2022/10/14 11:50:15;;;;;;;24.30;21.90;;;;;;;;;;5046225;28;20403;-57
2022/10/14 11:52:45;;;;;;;20.02;17.92;;;;;;;;;;5051523;28;20037;-57
2022/10/14 11:55:16;;;;;;;21.20;18.95;;;;;;;;;;5046524;28;20026;-57
2022/10/14 11:57:45;;;;;;;20.08;17.98;;;;;;;;;;5031730;28;20587;-57
2022/10/14 12:00:10;;;;;;;;;;;;;;;;;;5039742;28;20017;-58
2022/10/14 12:02:38;;;;;;;17.55;15.38;;;;;;;;;;5046723;28;19985;-57
2022/10/14 12:05:03;;;;;;;22.48;20.30;;;;;;;;;;5027142;28;20030;-58
2022/10/14 12:07:31;;;;;;;18.42;16.60;;;;;;;;;;5029927;28;20033;-58
2022/10/14 12:10:00;;;;;;;18.92;15.93;;;;;;;;;;5032240;28;20029;-57
2022/10/14 12:12:27;;;;;;;19.98;17.48;;;;;;;;;;5031169;28;20038;-57
2022/10/14 12:15:00;;;;;;;18.95;16.83;;;;;;;;;;5032863;28;20068;-57
2022/10/14 12:17:44;;;;;;;17.80;15.85;;;;;;;;;;5029728;28;20052;-58
2022/10/14 12:20:27;;;;;;;19.33;17.42;;;;;;;;;;5029634;28;20029;-57
2022/10/14 12:22:53;;;;;;;17.88;15.75;;;;;;;;;;5030434;28;20061;-58
2022/10/14 12:25:20;;;;;;;19.50;17.15;;;;;;;;;;5032230;28;20408;-58
2022/10/14 12:27:46;;;;;;;20.73;17.65;;;;;;;;;;5029620;28;20456;-57
2022/10/14 12:30:30;;;;;;;25.05;20.27;;;;;;;;;;5031953;28;20026;-58
2022/10/14 12:33:03;;;;;;;27.58;23.10;;;;;;;;;;5031102;28;20144;-58
2022/10/14 12:35:49;;;;;;;22.17;19.73;;;;;;;;;;5032305;28;20501;-58
2022/10/14 12:38:14;;;;;;;28.40;21.48;;;;;;;;;;5030027;28;20124;-57
2022/10/14 12:40:39;;;;;;;22.98;20.60;;;;;;;;;;5030734;28;20113;-57
2022/10/14 12:43:19;;;;;;;25.80;20.73;;;;;;;;;;5030225;28;20405;-58
2022/10/14 12:45:49;;;;;;;20.42;18.10;;;;;;;;;;5031991;28;20097;-58
2022/10/14 12:48:17;;;;;;;22.35;20.05;;;;;;;;;;5030692;28;20034;-57
2022/10/14 12:50:43;;;;;;;;;;;;;;;;;;5031189;28;20033;-57
2022/10/14 12:53:25;;;;;;;24.00;16.83;;;;;;;;;;5030467;28;19913;-58
2022/10/14 12:55:52;;;;;;;17.90;16.20;;;;;;;;;;5032685;28;20039;-58
2022/10/14 12:58:21;;;;;;;18.27;14.68;;;;;;;;;;5030870;28;20382;-57
2022/10/14 13:00:51;;;;;;;12.35;11.25;;;;;;;;;;5029424;28;20680;-58
2022/10/14 13:03:19;;;;;;;12.30;10.98;;;;;;;;;;5040946;28;20062;-57
2022/10/14 13:05:45;;;;;;;14.02;11.57;;;;;;;;;;5036088;28;20207;-58
2022/10/14 13:08:19;;;;;;;14.48;11.45;;;;;;;;;;5041845;28;20033;-57
2022/10/14 13:10:47;;;;;;;11.55;10.35;;;;;;;;;;5019102;28;20030;-58
2022/10/14 13:13:30;;;;;;;11.45;10.48;;;;;;;;;;5019095;28;20136;-57
2022/10/14 13:15:56;;;;;;;11.38;10.43;;;;;;;;;;5032149;28;20038;-58
2022/10/14 13:18:27;;;;;;;12.63;10.82;;;;;;;;;;5024519;28;20042;-59
2022/10/14 13:20:52;;;;;;;13.30;11.27;;;;;;;;;;5025899;28;20657;-57
2022/10/14 13:23:30;;;;;;;11.35;10.27;;;;;;;;;;5020824;28;20033;-57
2022/10/14 13:26:14;;;;;;;11.52;10.43;;;;;;;;;;5029755;28;20022;-57
2022/10/14 13:28:58;;;;;;;11.02;10.00;;;;;;;;;;5028738;28;20033;-56
2022/10/14 13:31:34;;;;;;;11.13;10.07;;;;;;;;;;5032561;28;20017;-57
2022/10/14 13:34:11;;;;;;;10.75;9.65;;;;;;;;;;5029198;28;20100;-58
2022/10/14 13:36:41;;;;;;;10.23;9.23;;;;;;;;;;5030437;28;20025;-56
2022/10/14 13:39:08;;;;;;;9.02;8.13;;;;;;;;;;5031593;28;20025;-56
2022/10/14 13:41:33;;;;;;;9.63;8.57;;;;;;;;;;5030646;28;20018;-57
2022/10/14 13:43:59;;;;;;;8.02;7.30;;;;;;;;;;5030760;28;20014;-57
2022/10/14 13:46:24;;;;;;;12.02;8.77;;;;;;;;;;5036828;28;20062;-57
2022/10/14 13:48:50;;;;;;;9.33;8.07;;;;;;;;;;5049597;28;20496;-57
2022/10/14 13:51:16;;;;;;;8.38;6.68;;;;;;;;;;5032735;28;20471;-57
2022/10/14 13:53:54;;;;;;;14.13;9.18;;;;;;;;;;5040504;28;20509;-57
2022/10/14 13:56:27;;;;;;;9.45;8.55;;;;;;;;;;5030332;28;20025;-57
2022/10/14 13:58:52;;;;;;;9.45;8.48;;;;;;;;;;5029113;28;20044;-58
2022/10/14 14:01:19;;;;;;;9.85;8.95;;;;;;;;;;5030364;28;20022;-57
2022/10/14 14:03:48;;;;;;;10.50;9.43;;;;;;;;;;5033306;28;20145;-57
2022/10/14 14:06:15;;;;;;;10.80;9.60;;;;;;;;;;5030379;28;20052;-57
2022/10/14 14:08:45;;;;;;;13.13;10.70;;;;;;;;;;5027872;28;20029;-57
2022/10/14 14:11:37;;;;;;;12.60;11.30;;;;;;;;;;5031712;28;20025;-57
2022/10/14 14:14:05;;;;;;;12.20;10.02;;;;;;;;;;5022542;28;20041;-57
2022/10/14 14:16:35;;;;;;;12.73;11.32;;;;;;;;;;5028767;28;20026;-57
2022/10/14 14:19:01;;;;;;;12.60;11.30;;;;;;;;;;5030135;28;20470;-57
2022/10/14 14:21:27;;;;;;;13.00;11.80;;;;;;;;;;5029722;28;20105;-57
2022/10/14 14:23:53;;;;;;;13.75;12.45;;;;;;;;;;5030409;28;20029;-57
2022/10/14 14:26:20;;;;;;;17.20;13.80;;;;;;;;;;5033670;28;20045;-57